createdAt,value
2023-04-24T00:00:10.701Z,82.40
2023-04-24T00:01:13.413Z,82.05
2023-04-24T00:02:15.571Z,81.91
2023-04-24T00:03:18.272Z,81.82
2023-04-24T00:04:20.505Z,82.31
2023-04-24T00:05:22.990Z,83.75
2023-04-24T00:06:26.501Z,84.75
2023-04-24T00:07:29.376Z,84.89
2023-04-24T00:08:31.255Z,85.74
2023-04-24T00:09:35.122Z,86.42
2023-04-24T00:10:37.142Z,86.96
2023-04-24T00:11:39.003Z,87.17
2023-04-24T00:12:40.867Z,87.35
2023-04-24T00:13:44.997Z,86.71
2023-04-24T00:14:47.023Z,86.23
2023-04-24T00:15:48.886Z,85.78
2023-04-24T00:16:50.988Z,85.27
2023-04-24T00:17:53.096Z,84.93
2023-04-24T00:18:55.318Z,85.01
2023-04-24T00:19:57.783Z,85.12
2023-04-24T00:20:59.959Z,85.36
2023-04-24T00:22:03.087Z,87.09
2023-04-24T00:23:04.974Z,87.64
2023-04-24T00:24:07.198Z,87.29
2023-04-24T00:25:09.191Z,87.52
2023-04-24T00:26:11.370Z,87.31
2023-04-24T00:27:13.430Z,87.40
2023-04-24T00:28:15.349Z,87.71
2023-04-24T00:29:17.190Z,88.48
2023-04-24T00:30:19.762Z,88.92
2023-04-24T00:31:21.732Z,89.29
2023-04-24T00:32:23.650Z,89.54
2023-04-24T00:33:25.790Z,89.19
2023-04-24T00:34:27.769Z,88.20
2023-04-24T00:35:29.644Z,87.00
2023-04-24T00:36:31.609Z,87.34
2023-04-24T00:37:33.547Z,87.91
2023-04-24T00:38:35.527Z,88.32
2023-04-24T00:39:37.383Z,88.08
2023-04-24T00:40:39.695Z,87.73
2023-04-24T00:41:42.340Z,87.48
2023-04-24T00:42:44.706Z,87.27
2023-04-24T00:43:46.588Z,86.98
2023-04-24T00:44:48.829Z,87.29
2023-04-24T00:45:50.853Z,88.22
2023-04-24T00:46:54.394Z,88.88
2023-04-24T00:47:57.112Z,88.88
2023-04-24T00:48:59.843Z,88.57
2023-04-24T00:50:06.936Z,88.58
2023-04-24T00:51:08.947Z,88.75
2023-04-24T00:52:10.815Z,88.66
2023-04-24T00:53:12.774Z,88.34
2023-04-24T00:54:15.112Z,87.97
2023-04-24T00:55:17.884Z,87.66
2023-04-24T00:56:20.056Z,87.92
2023-04-24T00:57:22.195Z,87.50
2023-04-24T00:58:24.757Z,87.22
2023-04-24T00:59:27.331Z,86.42
2023-04-24T01:00:29.393Z,86.32
2023-04-24T01:01:31.981Z,86.38
2023-04-24T01:02:34.203Z,86.53
2023-04-24T01:03:36.645Z,86.63
2023-04-24T01:04:39.894Z,86.18
2023-04-24T01:05:42.682Z,86.15
2023-04-24T01:06:46.168Z,86.55
2023-04-24T01:07:48.388Z,86.66
2023-04-24T01:08:50.447Z,86.17
2023-04-24T01:09:52.514Z,86.30
2023-04-24T01:10:57.190Z,86.30
2023-04-24T01:11:59.090Z,86.60
2023-04-24T01:13:01.055Z,86.52
2023-04-24T01:14:03.091Z,86.30
2023-04-24T01:15:06.000Z,86.54
2023-04-24T01:16:09.023Z,86.54
2023-04-24T01:17:11.291Z,86.97
2023-04-24T01:18:13.979Z,87.24
2023-04-24T01:19:18.483Z,87.88
2023-04-24T01:20:21.365Z,88.04
2023-04-24T01:21:25.998Z,88.21
2023-04-24T01:22:28.144Z,88.36
2023-04-24T01:23:30.236Z,88.14
2023-04-24T01:24:32.112Z,88.14
2023-04-24T01:25:34.877Z,87.54
2023-04-24T01:26:36.851Z,86.98
2023-04-24T01:27:38.849Z,86.72
2023-04-24T01:28:41.006Z,86.53
2023-04-24T01:29:43.402Z,86.58
2023-04-24T01:30:46.129Z,86.90
2023-04-24T01:31:48.360Z,87.37
2023-04-24T01:32:51.344Z,87.84
2023-04-24T01:33:55.040Z,88.36
2023-04-24T01:34:58.016Z,88.35
2023-04-24T01:36:00.194Z,88.37
2023-04-24T01:37:02.171Z,88.42
2023-04-24T01:38:04.810Z,89.25
2023-04-24T01:39:06.914Z,89.99
2023-04-24T01:40:10.485Z,90.44
2023-04-24T01:41:13.724Z,90.94
2023-04-24T01:42:17.133Z,91.21
2023-04-24T01:43:19.628Z,91.23
2023-04-24T01:44:22.084Z,91.22
2023-04-24T01:45:24.057Z,91.16
2023-04-24T01:46:26.738Z,91.21
2023-04-24T01:47:30.216Z,91.23
2023-04-24T01:48:32.973Z,91.60
2023-04-24T01:49:35.611Z,91.69
2023-04-24T01:50:38.119Z,91.64
2023-04-24T01:51:42.592Z,91.53
2023-04-24T01:52:44.927Z,91.45
2023-04-24T01:53:46.808Z,91.51
2023-04-24T01:54:49.040Z,91.17
2023-04-24T01:55:52.072Z,90.99
2023-04-24T01:56:54.152Z,90.73
2023-04-24T01:57:56.848Z,90.55
2023-04-24T01:59:01.974Z,90.58
2023-04-24T02:00:05.661Z,90.85
2023-04-24T02:01:07.674Z,91.60
2023-04-24T02:02:10.120Z,91.08
2023-04-24T02:03:12.312Z,91.23
2023-04-24T02:04:17.000Z,91.29
2023-04-24T02:05:19.624Z,91.43
2023-04-24T02:06:21.850Z,91.44
2023-04-24T02:07:23.852Z,91.68
2023-04-24T02:08:25.828Z,91.78
2023-04-24T02:09:27.682Z,91.41
2023-04-24T02:10:29.975Z,92.88
2023-04-24T02:11:31.997Z,92.62
2023-04-24T02:12:34.102Z,92.44
2023-04-24T02:13:36.241Z,92.82
2023-04-24T02:14:38.185Z,92.14
2023-04-24T02:15:40.079Z,91.60
2023-04-24T02:16:42.647Z,91.96
2023-04-24T02:17:44.785Z,91.14
2023-04-24T02:18:46.952Z,91.07
2023-04-24T02:19:50.036Z,90.62
2023-04-24T02:20:52.216Z,90.20
2023-04-24T02:21:54.163Z,89.83
2023-04-24T02:22:56.153Z,89.47
2023-04-24T02:23:58.141Z,89.21
2023-04-24T02:25:00.202Z,89.14
2023-04-24T02:26:02.538Z,89.18
2023-04-24T02:27:04.851Z,89.18
2023-04-24T02:28:06.870Z,89.34
2023-04-24T02:29:09.020Z,89.78
2023-04-24T02:30:11.392Z,90.21
2023-04-24T02:31:13.367Z,90.57
2023-04-24T02:32:15.297Z,90.91
2023-04-24T02:33:17.230Z,91.24
2023-04-24T02:34:19.081Z,91.51
2023-04-24T02:35:20.951Z,91.86
2023-04-24T02:36:23.085Z,92.44
2023-04-24T02:37:24.942Z,92.34
2023-04-24T02:38:26.903Z,93.36
2023-04-24T02:39:28.911Z,93.56
2023-04-24T02:40:31.055Z,93.42
2023-04-24T02:41:33.002Z,93.18
2023-04-24T02:42:34.879Z,93.28
2023-04-24T02:43:36.737Z,93.02
2023-04-24T02:44:38.602Z,93.28
2023-04-24T02:45:40.721Z,93.26
2023-04-24T02:46:43.040Z,93.08
2023-04-24T02:47:45.163Z,92.93
2023-04-24T02:48:47.211Z,93.00
2023-04-24T02:49:49.062Z,93.04
2023-04-24T02:50:51.454Z,92.94
2023-04-24T02:51:53.308Z,92.97
2023-04-24T02:52:55.173Z,92.60
2023-04-24T02:53:57.275Z,92.75
2023-04-24T02:54:59.154Z,92.84
2023-04-24T02:56:01.185Z,92.57
2023-04-24T02:57:03.257Z,92.12
2023-04-24T02:58:05.242Z,92.19
2023-04-24T02:59:07.223Z,92.55
2023-04-24T03:00:10.629Z,92.90
2023-04-24T03:01:14.767Z,93.22
2023-04-24T03:02:16.858Z,93.37
2023-04-24T03:03:18.980Z,93.39
2023-04-24T03:04:21.069Z,93.83
2023-04-24T03:05:23.161Z,93.96
2023-04-24T03:06:25.434Z,94.01
2023-04-24T03:07:27.306Z,93.70
2023-04-24T03:08:29.303Z,93.64
2023-04-24T03:09:31.293Z,93.27
2023-04-24T03:10:33.349Z,92.98
2023-04-24T03:11:36.883Z,92.85
2023-04-24T03:12:39.077Z,92.86
2023-04-24T03:13:41.110Z,93.12
2023-04-24T03:14:43.277Z,93.09
2023-04-24T03:15:45.359Z,93.11
2023-04-24T03:16:47.629Z,93.19
2023-04-24T03:17:50.698Z,93.12
2023-04-24T03:18:52.693Z,93.21
2023-04-24T03:19:54.564Z,92.90
2023-04-24T03:20:57.681Z,92.61
2023-04-24T03:21:59.601Z,92.59
2023-04-24T03:23:01.444Z,92.47
2023-04-24T03:24:03.498Z,92.57
2023-04-24T03:25:06.372Z,92.19
2023-04-24T03:26:08.557Z,91.78
2023-04-24T03:27:10.416Z,91.71
2023-04-24T03:28:12.543Z,91.74
2023-04-24T03:29:14.503Z,92.04
2023-04-24T03:30:16.966Z,91.59
2023-04-24T03:31:19.076Z,91.66
2023-04-24T03:32:24.419Z,92.12
2023-04-24T03:33:26.546Z,92.13
2023-04-24T03:34:28.658Z,92.13
2023-04-24T03:35:30.549Z,91.85
2023-04-24T03:36:32.500Z,92.42
2023-04-24T03:37:34.489Z,92.77
2023-04-24T03:38:36.353Z,92.86
2023-04-24T03:39:38.212Z,92.96
2023-04-24T03:40:40.467Z,92.52
2023-04-24T03:41:42.316Z,91.97
2023-04-24T03:42:44.185Z,91.71
2023-04-24T03:43:46.070Z,91.57
2023-04-24T03:44:47.954Z,91.71
2023-04-24T03:45:49.827Z,91.91
2023-04-24T03:46:51.957Z,91.90
2023-04-24T03:47:54.795Z,92.49
2023-04-24T03:48:57.947Z,92.76
2023-04-24T03:50:00.218Z,92.85
2023-04-24T03:51:02.194Z,92.84
2023-04-24T03:52:04.105Z,92.60
2023-04-24T03:53:06.106Z,92.98
2023-04-24T03:54:08.104Z,92.90
2023-04-24T03:55:10.078Z,92.92
2023-04-24T03:56:12.254Z,92.69
2023-04-24T03:57:14.269Z,92.42
2023-04-24T03:58:16.495Z,92.48
2023-04-24T03:59:18.697Z,92.71
2023-04-24T04:00:21.050Z,92.61
2023-04-24T04:01:23.494Z,92.69
2023-04-24T04:02:25.583Z,92.88
2023-04-24T04:03:27.871Z,93.04
2023-04-24T04:04:30.175Z,93.25
2023-04-24T04:05:32.375Z,93.38
2023-04-24T04:06:34.657Z,93.20
2023-04-24T04:07:36.623Z,93.02
2023-04-24T04:08:38.520Z,93.12
2023-04-24T04:09:40.617Z,93.49
2023-04-24T04:10:43.648Z,93.43
2023-04-24T04:11:45.695Z,93.21
2023-04-24T04:12:47.544Z,93.01
2023-04-24T04:13:49.610Z,92.85
2023-04-24T04:14:51.462Z,92.69
2023-04-24T04:15:53.408Z,92.41
2023-04-24T04:16:55.519Z,92.15
2023-04-24T04:17:57.610Z,91.79
2023-04-24T04:18:59.543Z,91.60
2023-04-24T04:20:01.405Z,91.61
2023-04-24T04:21:03.555Z,91.74
2023-04-24T04:22:05.428Z,91.75
2023-04-24T04:23:07.459Z,91.92
2023-04-24T04:24:09.433Z,92.09
2023-04-24T04:25:11.397Z,91.50
2023-04-24T04:26:14.019Z,91.76
2023-04-24T04:27:16.011Z,91.52
2023-04-24T04:28:18.002Z,91.14
2023-04-24T04:29:19.881Z,91.02
2023-04-24T04:30:22.086Z,91.11
2023-04-24T04:31:24.169Z,90.78
2023-04-24T04:32:26.289Z,90.21
2023-04-24T04:33:28.487Z,89.95
2023-04-24T04:34:30.372Z,90.15
2023-04-24T04:35:32.305Z,91.94
2023-04-24T04:36:34.372Z,92.56
2023-04-24T04:37:36.318Z,92.15
2023-04-24T04:38:38.248Z,91.70
2023-04-24T04:39:40.345Z,91.69
2023-04-24T04:40:43.497Z,91.36
2023-04-24T04:41:45.366Z,91.15
2023-04-24T04:42:47.303Z,90.14
2023-04-24T04:43:49.163Z,89.45
2023-04-24T04:44:51.567Z,89.07
2023-04-24T04:45:53.613Z,88.00
2023-04-24T04:46:55.688Z,86.66
2023-04-24T04:47:57.549Z,85.77
2023-04-24T04:49:00.800Z,85.18
2023-04-24T04:50:03.545Z,84.34
2023-04-24T04:51:05.550Z,83.91
2023-04-24T04:52:07.667Z,82.91
2023-04-24T04:53:09.528Z,81.63
2023-04-24T04:54:11.467Z,81.59
2023-04-24T04:55:13.715Z,80.87
2023-04-24T04:56:16.713Z,79.78
2023-04-24T04:57:18.652Z,78.54
2023-04-24T04:58:20.603Z,78.70
2023-04-24T04:59:22.553Z,78.52
2023-04-24T05:00:25.016Z,77.48
2023-04-24T05:01:26.978Z,76.74
2023-04-24T05:02:29.003Z,75.82
2023-04-24T05:03:31.182Z,74.61
2023-04-24T05:04:33.412Z,74.23
2023-04-24T05:05:35.506Z,73.63
2023-04-24T05:06:37.680Z,72.90
2023-04-24T05:07:39.614Z,72.78
2023-04-24T05:08:41.462Z,72.54
2023-04-24T05:09:43.436Z,72.50
2023-04-24T05:10:45.813Z,71.62
2023-04-24T05:11:48.052Z,70.80
2023-04-24T05:12:49.914Z,70.52
2023-04-24T05:13:51.869Z,70.80
2023-04-24T05:14:53.713Z,70.30
2023-04-24T05:15:56.181Z,70.15
2023-04-24T05:16:58.357Z,69.83
2023-04-24T05:18:00.423Z,69.35
2023-04-24T05:19:02.380Z,68.69
2023-04-24T05:20:06.137Z,68.86
2023-04-24T05:21:08.273Z,68.57
2023-04-24T05:22:10.215Z,68.36
2023-04-24T05:23:12.075Z,67.65
2023-04-24T05:24:13.914Z,67.20
2023-04-24T05:25:16.068Z,66.73
2023-04-24T05:26:18.172Z,66.62
2023-04-24T05:27:20.729Z,66.70
2023-04-24T05:28:24.861Z,65.79
2023-04-24T05:29:26.856Z,65.41
2023-04-24T05:30:29.408Z,65.42
2023-04-24T05:31:31.399Z,65.08
2023-04-24T05:32:33.373Z,65.43
2023-04-24T05:33:35.409Z,65.29
2023-04-24T05:34:37.484Z,64.51
2023-04-24T05:35:41.180Z,64.08
2023-04-24T05:36:43.311Z,63.46
2023-04-24T05:37:45.201Z,63.08
2023-04-24T05:38:47.180Z,62.63
2023-04-24T05:39:49.162Z,62.52
2023-04-24T05:40:51.116Z,62.45
2023-04-24T05:41:52.974Z,61.95
2023-04-24T05:42:55.963Z,60.93
2023-04-24T05:43:57.887Z,61.10
2023-04-24T05:44:59.854Z,60.62
2023-04-24T05:46:01.988Z,59.10
2023-04-24T05:47:04.177Z,57.77
2023-04-24T05:48:06.475Z,57.33
2023-04-24T05:49:09.613Z,55.81
2023-04-24T05:50:12.303Z,53.49
2023-04-24T05:51:14.262Z,52.13
2023-04-24T05:52:16.206Z,51.29
2023-04-24T05:53:21.008Z,50.55
2023-04-24T05:54:22.903Z,50.55
2023-04-24T05:55:26.020Z,50.62
2023-04-24T05:56:28.117Z,50.65
2023-04-24T05:57:30.084Z,50.46
2023-04-24T05:58:31.971Z,50.59
2023-04-24T05:59:36.511Z,50.47
2023-04-24T06:00:38.983Z,50.62
2023-04-24T06:01:40.992Z,50.61
2023-04-24T06:02:43.113Z,50.24
2023-04-24T06:03:45.216Z,49.93
2023-04-24T06:04:47.398Z,49.78
2023-04-24T06:05:51.128Z,50.08
2023-04-24T06:06:53.233Z,50.01
2023-04-24T06:07:55.106Z,49.06
2023-04-24T06:08:57.039Z,48.46
2023-04-24T06:09:58.996Z,47.75
2023-04-24T06:11:03.272Z,47.05
2023-04-24T06:12:05.307Z,46.74
2023-04-24T06:13:07.222Z,46.50
2023-04-24T06:14:09.174Z,46.41
2023-04-24T06:15:11.510Z,46.17
2023-04-24T06:16:13.829Z,46.36
2023-04-24T06:17:16.279Z,47.83
2023-04-24T06:18:18.194Z,48.68
2023-04-24T06:19:20.152Z,48.07
2023-04-24T06:20:22.596Z,47.38
2023-04-24T06:21:24.492Z,47.19
2023-04-24T06:22:26.447Z,46.92
2023-04-24T06:23:28.306Z,46.20
2023-04-24T06:24:30.400Z,45.62
2023-04-24T06:25:32.721Z,45.36
2023-04-24T06:26:34.878Z,45.38
2023-04-24T06:27:36.749Z,45.26
2023-04-24T06:28:39.558Z,45.54
2023-04-24T06:29:41.912Z,45.32
2023-04-24T06:30:44.819Z,44.98
2023-04-24T06:31:46.811Z,44.66
2023-04-24T06:32:48.895Z,44.92
2023-04-24T06:33:50.909Z,45.17
2023-04-24T06:34:52.862Z,45.48
2023-04-24T06:35:54.739Z,44.76
2023-04-24T06:36:57.199Z,43.85
2023-04-24T06:37:59.198Z,43.12
2023-04-24T06:39:01.388Z,42.76
2023-04-24T06:40:06.006Z,42.63
2023-04-24T06:41:08.284Z,42.34
2023-04-24T06:42:10.177Z,41.96
2023-04-24T06:43:12.864Z,40.80
2023-04-24T06:44:14.832Z,40.14
2023-04-24T06:45:16.836Z,39.65
2023-04-24T06:46:20.431Z,39.48
2023-04-24T06:47:22.918Z,39.26
2023-04-24T06:48:26.209Z,38.71
2023-04-24T06:49:28.080Z,38.99
2023-04-24T06:50:30.281Z,39.32
2023-04-24T06:51:32.221Z,38.82
2023-04-24T06:52:34.083Z,38.92
2023-04-24T06:53:35.931Z,37.88
2023-04-24T06:54:37.812Z,38.29
2023-04-24T06:55:40.375Z,38.63
2023-04-24T06:56:42.573Z,38.68
2023-04-24T06:57:44.706Z,39.07
2023-04-24T06:58:46.857Z,39.37
2023-04-24T06:59:48.825Z,39.65
2023-04-24T07:00:50.893Z,39.62
2023-04-24T07:01:55.188Z,38.36
2023-04-24T07:02:56.681Z,37.69
2023-04-24T07:03:58.743Z,37.51
2023-04-24T07:05:00.734Z,36.73
2023-04-24T07:06:03.273Z,36.45
2023-04-24T07:07:05.165Z,36.45
2023-04-24T07:08:07.037Z,37.10
2023-04-24T07:09:08.966Z,37.52
2023-04-24T07:10:11.468Z,36.92
2023-04-24T07:11:13.435Z,36.28
2023-04-24T07:12:15.305Z,36.86
2023-04-24T07:13:17.335Z,37.08
2023-04-24T07:14:20.049Z,36.97
2023-04-24T07:15:22.348Z,36.88
2023-04-24T07:16:24.675Z,36.22
2023-04-24T07:17:26.623Z,35.99
2023-04-24T07:18:28.530Z,36.57
2023-04-24T07:19:30.393Z,36.07
2023-04-24T07:20:32.651Z,35.86
2023-04-24T07:21:34.818Z,35.65
2023-04-24T07:22:38.734Z,35.00
2023-04-24T07:23:40.647Z,34.50
2023-04-24T07:24:45.022Z,34.19
2023-04-24T07:25:46.929Z,32.85
2023-04-24T07:26:49.009Z,32.14
2023-04-24T07:27:51.050Z,32.25
2023-04-24T07:28:53.104Z,32.69
2023-04-24T07:29:55.057Z,32.97
2023-04-24T07:30:57.927Z,33.12
2023-04-24T07:32:00.995Z,33.47
2023-04-24T07:33:03.688Z,33.67
2023-04-24T07:34:05.629Z,32.87
2023-04-24T07:35:08.628Z,32.19
2023-04-24T07:36:10.784Z,32.23
2023-04-24T07:37:12.862Z,32.62
2023-04-24T07:38:14.998Z,33.19
2023-04-24T07:39:16.895Z,34.21
2023-04-24T07:40:20.508Z,33.92
2023-04-24T07:41:24.954Z,33.42
2023-04-24T07:42:26.816Z,31.81
2023-04-24T07:43:29.468Z,31.76
2023-04-24T07:44:31.453Z,32.17
2023-04-24T07:45:33.331Z,32.40
2023-04-24T07:46:35.470Z,31.74
2023-04-24T07:47:37.766Z,31.74
2023-04-24T07:48:39.761Z,32.50
2023-04-24T07:49:42.560Z,32.15
2023-04-24T07:50:45.256Z,31.91
2023-04-24T07:51:47.269Z,31.88
2023-04-24T07:52:49.340Z,31.51
2023-04-24T07:53:51.298Z,31.75
2023-04-24T07:54:53.171Z,32.86
2023-04-24T07:55:56.867Z,33.07
2023-04-24T07:56:59.127Z,33.53
2023-04-24T07:58:01.132Z,33.31
2023-04-24T07:59:03.063Z,32.49
2023-04-24T08:00:06.730Z,32.17
2023-04-24T08:01:08.613Z,31.37
2023-04-24T08:02:10.984Z,32.02
2023-04-24T08:03:13.530Z,32.02
2023-04-24T08:04:15.870Z,32.37
2023-04-24T08:05:18.234Z,32.44
2023-04-24T08:06:20.361Z,31.86
2023-04-24T08:07:24.237Z,31.35
2023-04-24T08:08:28.281Z,31.27
2023-04-24T08:09:30.319Z,31.65
2023-04-24T08:10:32.516Z,31.80
2023-04-24T08:11:34.504Z,32.10
2023-04-24T08:12:37.387Z,32.50
2023-04-24T08:13:39.388Z,32.73
2023-04-24T08:14:41.798Z,32.54
2023-04-24T08:15:43.970Z,32.53
2023-04-24T08:16:46.876Z,32.27
2023-04-24T08:17:49.016Z,32.47
2023-04-24T08:18:51.244Z,32.32
2023-04-24T08:19:53.152Z,31.78
2023-04-24T08:20:55.719Z,32.05
2023-04-24T08:21:57.608Z,32.22
2023-04-24T08:22:59.614Z,32.44
2023-04-24T08:24:01.602Z,31.96
2023-04-24T08:25:04.401Z,32.12
2023-04-24T08:26:06.588Z,32.20
2023-04-24T08:27:09.170Z,32.23
2023-04-24T08:28:11.202Z,32.47
2023-04-24T08:29:13.282Z,32.98
2023-04-24T08:30:15.606Z,32.71
2023-04-24T08:31:17.504Z,32.79
2023-04-24T08:32:19.791Z,32.57
2023-04-24T08:33:24.342Z,32.80
2023-04-24T08:34:26.337Z,33.49
2023-04-24T08:35:28.207Z,33.65
2023-04-24T08:36:40.047Z,33.91
2023-04-24T08:37:34.380Z,34.39
2023-04-24T08:38:36.529Z,34.49
2023-04-24T08:39:38.629Z,34.49
2023-04-24T08:40:41.596Z,34.18
2023-04-24T08:41:44.227Z,34.34
2023-04-24T08:42:46.354Z,34.14
2023-04-24T08:43:49.212Z,34.20
2023-04-24T08:44:51.437Z,34.45
2023-04-24T08:45:57.224Z,33.86
2023-04-24T08:47:00.820Z,33.98
2023-04-24T08:48:04.896Z,33.03
2023-04-24T08:49:07.035Z,32.92
2023-04-24T08:50:10.107Z,33.56
2023-04-24T08:51:12.088Z,33.34
2023-04-24T08:52:13.974Z,33.19
2023-04-24T08:53:18.032Z,33.31
2023-04-24T08:54:21.520Z,32.76
2023-04-24T08:55:25.109Z,32.21
2023-04-24T08:56:28.955Z,32.33
2023-04-24T08:57:32.700Z,32.14
2023-04-24T08:58:36.342Z,31.77
2023-04-24T08:59:39.003Z,31.65
2023-04-24T09:00:41.799Z,31.48
2023-04-24T09:01:45.715Z,32.36
2023-04-24T09:02:50.485Z,32.19
2023-04-24T09:03:55.231Z,31.93
2023-04-24T09:04:58.216Z,31.99
2023-04-24T09:06:01.666Z,31.71
2023-04-24T09:07:06.328Z,31.78
2023-04-24T09:08:08.681Z,31.94
2023-04-24T09:09:11.479Z,31.37
2023-04-24T09:10:14.138Z,31.34
2023-04-24T09:11:17.253Z,31.59
2023-04-24T09:12:19.544Z,31.94
2023-04-24T09:13:21.708Z,32.54
2023-04-24T09:14:24.362Z,32.47
2023-04-24T09:15:26.617Z,32.71
2023-04-24T09:16:29.240Z,32.13
2023-04-24T09:17:32.591Z,32.28
2023-04-24T09:18:34.531Z,32.26
2023-04-24T09:19:39.095Z,32.36
2023-04-24T09:21:02.912Z,32.50
2023-04-24T09:22:06.205Z,32.72
2023-04-24T09:23:08.117Z,32.23
2023-04-24T09:25:45.757Z,31.66
2023-04-24T09:26:49.315Z,31.75
2023-04-24T09:27:54.044Z,31.27
2023-04-24T09:28:55.916Z,31.51
2023-04-24T09:29:58.791Z,31.93
2023-04-24T09:31:13.803Z,31.79
2023-04-24T09:32:20.132Z,31.80
2023-04-24T09:33:22.105Z,32.20
2023-04-24T09:34:26.715Z,31.29
2023-04-24T09:35:28.684Z,30.89
2023-04-24T09:36:40.303Z,30.47
2023-04-24T09:37:44.890Z,30.41
2023-04-24T09:38:46.880Z,30.04
2023-04-24T09:39:52.684Z,30.66
2023-04-24T09:40:54.892Z,30.98
2023-04-24T09:41:57.729Z,31.30
2023-04-24T09:42:59.666Z,31.49
2023-04-24T09:44:19.602Z,32.00
2023-04-24T09:45:21.765Z,32.70
2023-04-24T09:46:31.731Z,33.11
2023-04-24T09:47:39.362Z,33.12
2023-04-24T09:48:41.452Z,33.46
2023-04-24T09:49:43.636Z,33.49
2023-04-24T09:50:50.619Z,33.50
2023-04-24T09:51:54.728Z,33.43
2023-04-24T09:53:06.047Z,33.31
2023-04-24T09:54:15.077Z,33.66
2023-04-24T09:55:20.079Z,33.38
2023-04-24T09:56:25.661Z,33.40
2023-04-24T09:57:27.737Z,33.71
2023-04-24T09:58:29.906Z,33.83
2023-04-24T09:59:31.802Z,33.62
2023-04-24T10:00:34.245Z,33.83
2023-04-24T10:01:36.463Z,33.93
2023-04-24T10:02:38.789Z,33.81
2023-04-24T10:03:42.555Z,33.91
2023-04-24T10:04:55.869Z,34.34
2023-04-24T10:06:02.955Z,34.20
2023-04-24T10:07:05.578Z,34.47
2023-04-24T10:08:12.491Z,34.66
2023-04-24T10:09:15.512Z,34.96
2023-04-24T10:10:17.937Z,35.33
2023-04-24T10:11:19.992Z,34.97
2023-04-24T10:12:23.278Z,34.28
2023-04-24T10:13:25.874Z,34.14
2023-04-24T10:14:27.832Z,34.43
2023-04-24T10:15:30.872Z,34.25
2023-04-24T10:16:33.275Z,34.32
2023-04-24T10:17:36.194Z,33.98
2023-04-24T10:18:40.183Z,33.82
2023-04-24T10:19:43.634Z,34.33
2023-04-24T10:20:46.353Z,33.85
2023-04-24T10:21:48.551Z,33.88
2023-04-24T10:22:52.817Z,33.88
2023-04-24T10:23:55.462Z,34.90
2023-04-24T10:24:58.814Z,34.71
2023-04-24T10:26:00.788Z,35.27
2023-04-24T10:27:03.848Z,34.73
2023-04-24T10:28:06.690Z,34.84
2023-04-24T10:29:11.069Z,34.47
2023-04-24T10:30:14.319Z,34.06
2023-04-24T10:31:18.922Z,34.05
2023-04-24T10:32:20.912Z,33.45
2023-04-24T10:33:24.281Z,33.57
2023-04-24T10:34:26.448Z,33.22
2023-04-24T10:35:31.305Z,32.92
2023-04-24T10:36:35.366Z,32.84
2023-04-24T10:37:40.343Z,33.33
2023-04-24T10:38:45.980Z,33.76
2023-04-24T10:39:49.141Z,33.96
2023-04-24T10:40:51.117Z,34.24
2023-04-24T10:41:54.396Z,33.93
2023-04-24T10:42:58.716Z,33.97
2023-04-24T10:44:09.478Z,34.01
2023-04-24T10:45:22.261Z,33.19
2023-04-24T10:46:28.158Z,33.69
2023-04-24T10:47:30.495Z,33.86
2023-04-24T10:48:34.558Z,33.95
2023-04-24T10:49:36.549Z,34.12
2023-04-24T10:50:47.733Z,34.12
2023-04-24T10:51:50.842Z,34.65
2023-04-24T10:52:52.852Z,34.87
2023-04-24T10:53:57.962Z,34.54
2023-04-24T10:55:01.970Z,34.27
2023-04-24T10:56:09.054Z,34.08
2023-04-24T10:57:28.062Z,34.01
2023-04-24T10:58:42.343Z,34.36
2023-04-24T10:59:45.463Z,34.48
2023-04-24T11:01:01.225Z,34.74
2023-04-24T11:02:03.331Z,35.33
2023-04-24T11:03:26.761Z,35.63
2023-04-24T11:05:58.983Z,36.31
2023-04-24T11:07:02.922Z,36.24
2023-04-24T11:08:13.508Z,36.63
2023-04-24T11:09:15.965Z,36.27
2023-04-24T11:10:27.648Z,36.14
2023-04-24T11:11:30.659Z,35.98
2023-04-24T11:12:37.864Z,35.94
2023-04-24T11:13:58.602Z,35.65
2023-04-24T11:15:02.180Z,35.61
2023-04-24T11:16:16.968Z,35.87
2023-04-24T11:17:37.398Z,36.48
2023-04-24T11:18:43.273Z,36.70
2023-04-24T11:19:48.927Z,36.34
2023-04-24T11:20:52.933Z,35.88
2023-04-24T11:21:58.465Z,34.65
2023-04-24T11:23:04.197Z,33.77
2023-04-24T11:25:43.750Z,32.48
2023-04-24T11:26:45.718Z,32.25
2023-04-24T11:27:47.771Z,32.16
2023-04-24T11:28:51.135Z,31.84
2023-04-24T11:29:59.993Z,32.08
2023-04-24T11:31:22.897Z,31.93
2023-04-24T11:32:42.124Z,32.34
2023-04-24T11:33:44.558Z,32.18
2023-04-24T11:34:49.333Z,32.34
2023-04-24T11:35:51.947Z,31.83
2023-04-24T11:36:54.066Z,31.43
2023-04-24T11:39:00.822Z,31.76
2023-04-24T11:40:04.684Z,31.39
2023-04-24T11:41:06.968Z,31.03
2023-04-24T11:42:15.345Z,30.71
2023-04-24T11:43:20.084Z,30.33
2023-04-24T11:44:24.769Z,30.67
2023-04-24T11:45:29.180Z,30.14
2023-04-24T11:46:32.670Z,30.30
2023-04-24T11:47:34.860Z,29.47
2023-04-24T11:48:37.017Z,28.83
2023-04-24T11:49:39.010Z,28.80
2023-04-24T11:50:45.048Z,29.11
2023-04-24T11:51:53.020Z,29.11
2023-04-24T11:52:50.911Z,30.71
2023-04-24T11:54:03.518Z,30.92
2023-04-24T11:55:00.518Z,30.76
2023-04-24T11:56:04.414Z,29.73
2023-04-24T11:57:06.527Z,29.93
2023-04-24T11:58:08.408Z,30.14
2023-04-24T11:59:10.449Z,30.43
2023-04-24T12:00:18.144Z,31.44
2023-04-24T12:01:20.496Z,32.26
2023-04-24T12:02:25.290Z,32.77
2023-04-24T12:03:27.881Z,32.83
2023-04-24T12:04:35.587Z,33.32
2023-04-24T12:05:39.052Z,34.21
2023-04-24T12:07:02.141Z,34.17
2023-04-24T12:08:04.447Z,34.61
2023-04-24T12:09:17.868Z,33.92
2023-04-24T12:10:11.182Z,34.00
2023-04-24T12:11:15.918Z,33.71
2023-04-24T12:12:19.135Z,33.34
2023-04-24T12:13:21.869Z,32.53
2023-04-24T12:14:24.534Z,32.73
2023-04-24T12:15:27.654Z,32.99
2023-04-24T12:16:29.883Z,33.56
2023-04-24T12:17:33.892Z,34.19
2023-04-24T12:18:44.301Z,34.17
2023-04-24T12:19:47.912Z,34.05
2023-04-24T12:20:50.630Z,33.96
2023-04-24T12:22:04.453Z,33.94
2023-04-24T12:23:06.368Z,33.92
2023-04-24T12:24:08.356Z,34.22
2023-04-24T12:25:11.267Z,34.54
2023-04-24T12:27:31.446Z,34.89
2023-04-24T12:28:38.243Z,35.20
2023-04-24T12:29:58.104Z,35.62
2023-04-24T12:31:01.603Z,35.99
2023-04-24T12:32:03.757Z,36.24
2023-04-24T12:33:05.845Z,36.62
2023-04-24T12:34:21.738Z,37.18
2023-04-24T12:35:25.128Z,37.05
2023-04-24T12:36:27.241Z,36.13
2023-04-24T12:37:32.871Z,35.95
2023-04-24T12:38:34.821Z,36.10
2023-04-24T12:39:36.687Z,36.36
2023-04-24T12:40:39.456Z,36.45
2023-04-24T12:41:50.813Z,37.00
2023-04-24T12:42:52.721Z,36.92
2023-04-24T12:43:54.734Z,35.97
2023-04-24T12:44:59.699Z,35.21
2023-04-24T12:46:02.286Z,35.31
2023-04-24T12:47:04.312Z,35.89
2023-04-24T12:48:06.336Z,35.56
2023-04-24T12:49:08.246Z,35.98
2023-04-24T12:50:12.539Z,35.88
2023-04-24T12:51:14.529Z,36.23
2023-04-24T12:52:16.532Z,36.12
2023-04-24T12:53:18.383Z,36.92
2023-04-24T12:54:20.258Z,37.50
2023-04-24T12:55:22.605Z,37.29
2023-04-24T12:56:24.884Z,38.54
2023-04-24T12:57:29.885Z,38.58
2023-04-24T12:58:31.893Z,38.68
2023-04-24T12:59:33.780Z,39.78
2023-04-24T13:00:36.348Z,40.42
2023-04-24T13:01:38.515Z,40.89
2023-04-24T13:02:40.619Z,39.80
2023-04-24T13:03:43.053Z,39.16
2023-04-24T13:04:49.299Z,39.44
2023-04-24T13:05:51.440Z,39.00
2023-04-24T13:06:54.230Z,38.38
2023-04-24T13:07:57.621Z,38.11
2023-04-24T13:09:00.425Z,38.19
2023-04-24T13:10:02.792Z,38.32
2023-04-24T13:11:04.882Z,38.26
2023-04-24T13:12:08.002Z,37.99
2023-04-24T13:13:09.954Z,37.45
2023-04-24T13:14:11.795Z,36.92
2023-04-24T13:15:13.751Z,36.66
2023-04-24T13:16:15.862Z,36.66
2023-04-24T13:17:17.892Z,36.78
2023-04-24T13:18:19.974Z,37.01
2023-04-24T13:19:22.125Z,37.26
2023-04-24T13:20:25.482Z,37.10
2023-04-24T13:21:27.503Z,37.01
2023-04-24T13:22:29.557Z,37.13
2023-04-24T13:23:31.487Z,37.25
2023-04-24T13:24:33.657Z,37.66
2023-04-24T13:25:36.727Z,37.95
2023-04-24T13:26:38.876Z,38.05
2023-04-24T13:27:40.714Z,38.96
2023-04-24T13:28:42.679Z,39.04
2023-04-24T13:29:44.939Z,39.18
2023-04-24T13:30:47.033Z,39.11
2023-04-24T13:31:51.273Z,38.86
2023-04-24T13:32:53.535Z,38.21
2023-04-24T13:33:55.590Z,38.25
2023-04-24T13:34:57.439Z,38.07
2023-04-24T13:35:59.452Z,37.92
2023-04-24T13:37:02.098Z,37.79
2023-04-24T13:38:04.240Z,37.82
2023-04-24T13:39:06.536Z,38.76